sensor_id;sensor_type;location;lat;lon;timestamp;P1;durP1;ratioP1;P2;durP2;ratioP2
15167;SDS011;7684;52.150;11.656;2022-11-10T05:18:38;6.70;;;2.30;;
15167;SDS011;7684;52.150;11.656;2022-11-10T05:21:05;7.53;;;2.67;;
15167;SDS011;7684;52.150;11.656;2022-11-10T05:23:31;7.33;;;2.47;;
15167;SDS011;7684;52.150;11.656;2022-11-10T05:26:03;4.20;;;1.83;;
15167;SDS011;7684;52.150;11.656;2022-11-10T05:28:29;8.60;;;2.73;;
15167;SDS011;7684;52.150;11.656;2022-11-10T05:30:55;8.37;;;2.40;;
15167;SDS011;7684;52.150;11.656;2022-11-10T05:33:22;8.33;;;2.73;;
15167;SDS011;7684;52.150;11.656;2022-11-10T05:35:49;8.53;;;2.40;;
15167;SDS011;7684;52.150;11.656;2022-11-10T05:38:16;6.07;;;2.37;;
15167;SDS011;7684;52.150;11.656;2022-11-10T05:40:42;7.97;;;2.40;;
15167;SDS011;7684;52.150;11.656;2022-11-10T05:43:08;5.10;;;2.37;;
15167;SDS011;7684;52.150;11.656;2022-11-10T05:45:35;4.73;;;2.40;;
15167;SDS011;7684;52.150;11.656;2022-11-10T05:48:01;9.33;;;3.20;;
15167;SDS011;7684;52.150;11.656;2022-11-10T05:50:28;9.00;;;3.00;;
15167;SDS011;7684;52.150;11.656;2022-11-10T05:52:55;4.10;;;2.57;;
15167;SDS011;7684;52.150;11.656;2022-11-10T05:55:22;7.73;;;2.80;;
15167;SDS011;7684;52.150;11.656;2022-11-10T05:57:49;5.07;;;2.53;;
15167;SDS011;7684;52.150;11.656;2022-11-10T06:00:16;9.10;;;3.03;;
15167;SDS011;7684;52.150;11.656;2022-11-10T06:02:45;4.30;;;2.43;;
15167;SDS011;7684;52.150;11.656;2022-11-10T06:05:11;5.63;;;2.50;;
15167;SDS011;7684;52.150;11.656;2022-11-10T06:07:38;5.00;;;2.97;;
15167;SDS011;7684;52.150;11.656;2022-11-10T06:10:06;5.60;;;2.90;;
15167;SDS011;7684;52.150;11.656;2022-11-10T06:12:32;8.43;;;2.73;;
15167;SDS011;7684;52.150;11.656;2022-11-10T06:14:59;5.87;;;2.93;;
15167;SDS011;7684;52.150;11.656;2022-11-10T06:17:25;6.37;;;3.20;;
15167;SDS011;7684;52.150;11.656;2022-11-10T06:19:51;5.30;;;2.77;;
15167;SDS011;7684;52.150;11.656;2022-11-10T06:22:18;7.67;;;3.13;;
15167;SDS011;7684;52.150;11.656;2022-11-10T06:24:44;8.73;;;3.30;;
15167;SDS011;7684;52.150;11.656;2022-11-10T06:27:12;8.33;;;3.27;;
15167;SDS011;7684;52.150;11.656;2022-11-10T06:29:38;7.57;;;3.43;;
15167;SDS011;7684;52.150;11.656;2022-11-10T06:32:04;7.87;;;3.40;;
15167;SDS011;7684;52.150;11.656;2022-11-10T06:34:31;8.00;;;4.13;;
15167;SDS011;7684;52.150;11.656;2022-11-10T06:36:57;8.37;;;3.93;;
15167;SDS011;7684;52.150;11.656;2022-11-10T06:39:23;5.50;;;4.27;;
15167;SDS011;7684;52.150;11.656;2022-11-10T06:41:49;6.30;;;3.33;;
15167;SDS011;7684;52.150;11.656;2022-11-10T06:44:17;10.50;;;3.93;;
15167;SDS011;7684;52.150;11.656;2022-11-10T06:46:43;8.87;;;3.57;;
15167;SDS011;7684;52.150;11.656;2022-11-10T06:49:10;9.17;;;3.30;;
15167;SDS011;7684;52.150;11.656;2022-11-10T06:51:36;6.90;;;2.83;;
15167;SDS011;7684;52.150;11.656;2022-11-10T06:54:03;5.70;;;3.10;;
15167;SDS011;7684;52.150;11.656;2022-11-10T06:56:29;7.90;;;2.93;;
15167;SDS011;7684;52.150;11.656;2022-11-10T06:58:55;9.67;;;3.50;;
15167;SDS011;7684;52.150;11.656;2022-11-10T07:01:23;8.60;;;2.80;;
15167;SDS011;7684;52.150;11.656;2022-11-10T07:03:50;9.23;;;3.50;;
15167;SDS011;7684;52.150;11.656;2022-11-10T07:06:16;7.80;;;2.70;;
15167;SDS011;7684;52.150;11.656;2022-11-10T07:08:43;9.10;;;3.57;;
15167;SDS011;7684;52.150;11.656;2022-11-10T07:11:09;6.10;;;2.87;;
15167;SDS011;7684;52.150;11.656;2022-11-10T07:13:35;7.57;;;3.00;;
15167;SDS011;7684;52.150;11.656;2022-11-10T07:16:02;6.70;;;2.97;;
15167;SDS011;7684;52.150;11.656;2022-11-10T07:18:30;6.47;;;2.70;;
15167;SDS011;7684;52.150;11.656;2022-11-10T07:20:56;8.50;;;2.63;;
15167;SDS011;7684;52.150;11.656;2022-11-10T07:23:23;6.57;;;2.50;;
15167;SDS011;7684;52.150;11.656;2022-11-10T07:25:49;8.97;;;3.00;;
15167;SDS011;7684;52.150;11.656;2022-11-10T07:28:15;10.63;;;3.40;;
15167;SDS011;7684;52.150;11.656;2022-11-10T07:30:42;8.87;;;2.77;;
15167;SDS011;7684;52.150;11.656;2022-11-10T07:33:09;6.03;;;2.70;;
15167;SDS011;7684;52.150;11.656;2022-11-10T07:35:37;5.00;;;2.73;;
15167;SDS011;7684;52.150;11.656;2022-11-10T07:38:04;5.23;;;2.90;;
15167;SDS011;7684;52.150;11.656;2022-11-10T07:40:30;7.13;;;2.87;;
15167;SDS011;7684;52.150;11.656;2022-11-10T07:42:57;6.77;;;2.67;;
15167;SDS011;7684;52.150;11.656;2022-11-10T07:45:23;8.10;;;3.33;;
15167;SDS011;7684;52.150;11.656;2022-11-10T07:47:50;6.37;;;2.80;;
15167;SDS011;7684;52.150;11.656;2022-11-10T07:50:16;5.20;;;2.57;;
15167;SDS011;7684;52.150;11.656;2022-11-10T07:52:44;6.27;;;2.80;;
15167;SDS011;7684;52.150;11.656;2022-11-10T07:55:10;15.87;;;3.57;;
15167;SDS011;7684;52.150;11.656;2022-11-10T07:57:36;6.73;;;2.57;;
15167;SDS011;7684;52.150;11.656;2022-11-10T08:00:03;6.03;;;2.63;;
15167;SDS011;7684;52.150;11.656;2022-11-10T08:02:30;5.83;;;3.30;;
15167;SDS011;7684;52.150;11.656;2022-11-10T08:04:56;6.00;;;2.50;;
15167;SDS011;7684;52.150;11.656;2022-11-10T08:07:22;7.83;;;3.00;;
15167;SDS011;7684;52.150;11.656;2022-11-10T08:09:50;9.53;;;3.40;;
15167;SDS011;7684;52.150;11.656;2022-11-10T08:12:16;7.80;;;2.90;;
15167;SDS011;7684;52.150;11.656;2022-11-10T08:14:43;8.43;;;2.70;;
15167;SDS011;7684;52.150;11.656;2022-11-10T08:17:09;6.93;;;2.90;;
15167;SDS011;7684;52.150;11.656;2022-11-10T08:19:36;5.40;;;2.50;;
15167;SDS011;7684;52.150;11.656;2022-11-10T08:22:02;4.60;;;2.30;;
15167;SDS011;7684;52.150;11.656;2022-11-10T08:24:28;8.07;;;2.80;;
15167;SDS011;7684;52.150;11.656;2022-11-10T08:26:56;6.77;;;2.77;;
15167;SDS011;7684;52.150;11.656;2022-11-10T08:29:23;6.77;;;2.67;;
15167;SDS011;7684;52.150;11.656;2022-11-10T08:31:49;5.67;;;2.03;;
15167;SDS011;7684;52.150;11.656;2022-11-10T08:34:17;8.73;;;2.53;;
15167;SDS011;7684;52.150;11.656;2022-11-10T08:36:43;6.53;;;2.60;;
15167;SDS011;7684;52.150;11.656;2022-11-10T08:39:10;5.77;;;2.27;;
15167;SDS011;7684;52.150;11.656;2022-11-10T08:41:37;4.50;;;2.50;;
15167;SDS011;7684;52.150;11.656;2022-11-10T08:44:06;6.70;;;2.30;;
15167;SDS011;7684;52.150;11.656;2022-11-10T08:46:33;5.93;;;2.50;;
15167;SDS011;7684;52.150;11.656;2022-11-10T08:48:59;6.40;;;2.23;;
15167;SDS011;7684;52.150;11.656;2022-11-10T08:51:26;4.17;;;2.47;;
15167;SDS011;7684;52.150;11.656;2022-11-10T08:53:53;7.03;;;2.70;;
15167;SDS011;7684;52.150;11.656;2022-11-10T08:56:19;7.37;;;2.30;;
15167;SDS011;7684;52.150;11.656;2022-11-10T08:58:45;6.47;;;2.67;;
15167;SDS011;7684;52.150;11.656;2022-11-10T09:01:15;5.93;;;2.40;;
15167;SDS011;7684;52.150;11.656;2022-11-10T09:03:42;7.93;;;2.53;;
15167;SDS011;7684;52.150;11.656;2022-11-10T09:06:08;5.57;;;2.33;;
15167;SDS011;7684;52.150;11.656;2022-11-10T09:08:35;5.30;;;1.97;;
15167;SDS011;7684;52.150;11.656;2022-11-10T09:11:02;6.37;;;2.10;;
15167;SDS011;7684;52.150;11.656;2022-11-10T09:13:29;8.13;;;2.33;;
15167;SDS011;7684;52.150;11.656;2022-11-10T09:15:55;4.60;;;2.07;;
15167;SDS011;7684;52.150;11.656;2022-11-10T09:18:23;6.10;;;2.10;;
15167;SDS011;7684;52.150;11.656;2022-11-10T09:20:49;9.43;;;2.10;;
15167;SDS011;7684;52.150;11.656;2022-11-10T09:23:16;7.60;;;2.20;;
15167;SDS011;7684;52.150;11.656;2022-11-10T09:25:48;6.37;;;1.73;;
15167;SDS011;7684;52.150;11.656;2022-11-10T09:28:15;5.43;;;1.97;;
15167;SDS011;7684;52.150;11.656;2022-11-10T09:30:44;4.90;;;1.97;;
15167;SDS011;7684;52.150;11.656;2022-11-10T09:33:10;4.65;;;1.70;;
15167;SDS011;7684;52.150;11.656;2022-11-10T09:35:38;5.55;;;1.80;;
15167;SDS011;7684;52.150;11.656;2022-11-10T09:38:04;6.50;;;1.80;;
15167;SDS011;7684;52.150;11.656;2022-11-10T09:40:32;6.47;;;2.08;;
15167;SDS011;7684;52.150;11.656;2022-11-10T09:43:03;5.45;;;1.63;;
15167;SDS011;7684;52.150;11.656;2022-11-10T09:45:31;4.60;;;1.80;;
15167;SDS011;7684;52.150;11.656;2022-11-10T09:47:59;4.75;;;1.65;;
15167;SDS011;7684;52.150;11.656;2022-11-10T09:50:31;5.28;;;1.75;;
15167;SDS011;7684;52.150;11.656;2022-11-10T09:53:01;6.38;;;1.90;;
15167;SDS011;7684;52.150;11.656;2022-11-10T09:55:30;5.90;;;2.05;;
15167;SDS011;7684;52.150;11.656;2022-11-10T09:57:56;6.10;;;1.67;;
15167;SDS011;7684;52.150;11.656;2022-11-10T10:00:23;4.47;;;1.80;;
15167;SDS011;7684;52.150;11.656;2022-11-10T10:02:50;5.13;;;1.92;;
15167;SDS011;7684;52.150;11.656;2022-11-10T10:05:28;6.03;;;1.80;;
15167;SDS011;7684;52.150;11.656;2022-11-10T10:07:59;5.20;;;1.80;;
15167;SDS011;7684;52.150;11.656;2022-11-10T10:10:29;7.13;;;1.75;;
15167;SDS011;7684;52.150;11.656;2022-11-10T10:13:05;8.15;;;1.95;;
15167;SDS011;7684;52.150;11.656;2022-11-10T10:15:39;4.65;;;1.73;;
15167;SDS011;7684;52.150;11.656;2022-11-10T10:18:12;5.85;;;1.90;;
15167;SDS011;7684;52.150;11.656;2022-11-10T10:20:43;7.22;;;1.90;;
15167;SDS011;7684;52.150;11.656;2022-11-10T10:23:15;5.28;;;1.52;;
15167;SDS011;7684;52.150;11.656;2022-11-10T10:25:46;4.95;;;1.50;;
15167;SDS011;7684;52.150;11.656;2022-11-10T10:28:15;3.85;;;1.40;;
15167;SDS011;7684;52.150;11.656;2022-11-10T10:30:45;5.63;;;1.48;;
15167;SDS011;7684;52.150;11.656;2022-11-10T10:33:12;4.97;;;1.73;;
15167;SDS011;7684;52.150;11.656;2022-11-10T10:35:40;4.68;;;1.70;;
15167;SDS011;7684;52.150;11.656;2022-11-10T10:38:09;4.07;;;1.42;;
15167;SDS011;7684;52.150;11.656;2022-11-10T10:40:38;6.05;;;1.55;;
15167;SDS011;7684;52.150;11.656;2022-11-10T10:43:06;5.63;;;1.75;;
15167;SDS011;7684;52.150;11.656;2022-11-10T10:45:32;5.28;;;1.40;;
15167;SDS011;7684;52.150;11.656;2022-11-10T10:48:02;7.80;;;1.63;;
15167;SDS011;7684;52.150;11.656;2022-11-10T10:50:29;5.55;;;1.60;;
15167;SDS011;7684;52.150;11.656;2022-11-10T10:53:06;4.60;;;1.38;;
15167;SDS011;7684;52.150;11.656;2022-11-10T10:55:33;6.43;;;2.00;;
15167;SDS011;7684;52.150;11.656;2022-11-10T10:58:00;6.60;;;1.60;;
15167;SDS011;7684;52.150;11.656;2022-11-10T11:00:28;6.07;;;1.58;;
15167;SDS011;7684;52.150;11.656;2022-11-10T11:03:01;4.07;;;1.90;;
15167;SDS011;7684;52.150;11.656;2022-11-10T11:05:27;9.90;;;1.83;;
15167;SDS011;7684;52.150;11.656;2022-11-10T11:07:54;5.63;;;1.58;;
15167;SDS011;7684;52.150;11.656;2022-11-10T11:10:21;7.05;;;1.58;;
15167;SDS011;7684;52.150;11.656;2022-11-10T11:12:48;4.18;;;1.38;;
15167;SDS011;7684;52.150;11.656;2022-11-10T11:15:19;5.20;;;1.70;;
15167;SDS011;7684;52.150;11.656;2022-11-10T11:17:53;5.00;;;1.30;;
15167;SDS011;7684;52.150;11.656;2022-11-10T11:20:21;3.88;;;1.35;;
15167;SDS011;7684;52.150;11.656;2022-11-10T11:22:51;5.93;;;1.50;;
15167;SDS011;7684;52.150;11.656;2022-11-10T11:25:22;4.55;;;1.77;;
15167;SDS011;7684;52.150;11.656;2022-11-10T11:27:53;5.30;;;2.55;;
15167;SDS011;7684;52.150;11.656;2022-11-10T11:30:24;2.58;;;1.38;;
15167;SDS011;7684;52.150;11.656;2022-11-10T11:33:00;6.28;;;1.65;;
15167;SDS011;7684;52.150;11.656;2022-11-10T11:35:30;7.78;;;2.03;;
15167;SDS011;7684;52.150;11.656;2022-11-10T11:38:01;2.63;;;1.33;;
15167;SDS011;7684;52.150;11.656;2022-11-10T11:40:35;3.22;;;1.20;;
15167;SDS011;7684;52.150;11.656;2022-11-10T11:43:06;4.78;;;1.25;;
15167;SDS011;7684;52.150;11.656;2022-11-10T11:45:40;5.28;;;1.92;;
15167;SDS011;7684;52.150;11.656;2022-11-10T11:48:24;3.80;;;1.38;;
15167;SDS011;7684;52.150;11.656;2022-11-10T11:50:55;5.75;;;1.70;;
15167;SDS011;7684;52.150;11.656;2022-11-10T11:53:26;4.10;;;1.50;;
15167;SDS011;7684;52.150;11.656;2022-11-10T11:55:58;4.85;;;1.48;;
15167;SDS011;7684;52.150;11.656;2022-11-10T11:58:28;4.68;;;1.40;;
15167;SDS011;7684;52.150;11.656;2022-11-10T12:01:00;5.53;;;1.52;;
15167;SDS011;7684;52.150;11.656;2022-11-10T12:03:36;5.35;;;1.55;;
15167;SDS011;7684;52.150;11.656;2022-11-10T12:06:17;6.50;;;1.48;;
15167;SDS011;7684;52.150;11.656;2022-11-10T12:08:48;5.70;;;1.48;;
15167;SDS011;7684;52.150;11.656;2022-11-10T12:11:17;5.60;;;1.42;;
15167;SDS011;7684;52.150;11.656;2022-11-10T12:13:47;5.05;;;1.60;;
15167;SDS011;7684;52.150;11.656;2022-11-10T12:16:18;3.53;;;1.55;;
15167;SDS011;7684;52.150;11.656;2022-11-10T12:18:50;6.82;;;2.03;;
15167;SDS011;7684;52.150;11.656;2022-11-10T12:21:20;5.45;;;1.42;;
15167;SDS011;7684;52.150;11.656;2022-11-10T12:23:56;3.72;;;1.42;;
15167;SDS011;7684;52.150;11.656;2022-11-10T12:26:28;3.83;;;1.35;;
15167;SDS011;7684;52.150;11.656;2022-11-10T12:28:58;3.83;;;1.23;;
15167;SDS011;7684;52.150;11.656;2022-11-10T12:31:26;4.70;;;1.30;;
15167;SDS011;7684;52.150;11.656;2022-11-10T12:33:57;4.75;;;1.25;;
15167;SDS011;7684;52.150;11.656;2022-11-10T12:36:25;4.28;;;1.50;;
15167;SDS011;7684;52.150;11.656;2022-11-10T12:38:54;3.65;;;1.20;;
15167;SDS011;7684;52.150;11.656;2022-11-10T12:41:22;3.15;;;1.30;;
15167;SDS011;7684;52.150;11.656;2022-11-10T12:44:01;5.43;;;1.20;;
15167;SDS011;7684;52.150;11.656;2022-11-10T12:46:28;4.72;;;1.30;;
15167;SDS011;7684;52.150;11.656;2022-11-10T12:48:58;3.25;;;1.40;;
15167;SDS011;7684;52.150;11.656;2022-11-10T12:51:26;6.45;;;1.52;;
15167;SDS011;7684;52.150;11.656;2022-11-10T12:53:54;4.93;;;1.60;;
15167;SDS011;7684;52.150;11.656;2022-11-10T12:56:21;4.63;;;1.67;;
15167;SDS011;7684;52.150;11.656;2022-11-10T12:58:52;7.15;;;2.15;;
15167;SDS011;7684;52.150;11.656;2022-11-10T13:01:40;4.30;;;1.20;;
15167;SDS011;7684;52.150;11.656;2022-11-10T13:04:12;6.18;;;2.10;;
15167;SDS011;7684;52.150;11.656;2022-11-10T13:06:43;3.00;;;1.40;;
15167;SDS011;7684;52.150;11.656;2022-11-10T13:09:20;4.72;;;1.50;;
15167;SDS011;7684;52.150;11.656;2022-11-10T13:12:01;5.20;;;1.23;;
15167;SDS011;7684;52.150;11.656;2022-11-10T13:14:28;6.32;;;1.65;;
15167;SDS011;7684;52.150;11.656;2022-11-10T13:16:55;5.80;;;1.58;;
15167;SDS011;7684;52.150;11.656;2022-11-10T13:22:09;4.28;;;1.13;;
15167;SDS011;7684;52.150;11.656;2022-11-10T13:24:35;5.45;;;1.40;;
15167;SDS011;7684;52.150;11.656;2022-11-10T13:27:03;5.45;;;1.70;;
15167;SDS011;7684;52.150;11.656;2022-11-10T13:29:30;3.58;;;1.20;;
15167;SDS011;7684;52.150;11.656;2022-11-10T13:31:59;4.65;;;1.60;;
15167;SDS011;7684;52.150;11.656;2022-11-10T13:34:45;4.85;;;1.40;;
15167;SDS011;7684;52.150;11.656;2022-11-10T13:40:30;4.85;;;1.70;;
15167;SDS011;7684;52.150;11.656;2022-11-10T13:45:42;6.00;;;1.40;;
15167;SDS011;7684;52.150;11.656;2022-11-10T13:48:12;4.35;;;1.40;;
15167;SDS011;7684;52.150;11.656;2022-11-10T13:50:44;5.05;;;2.13;;
15167;SDS011;7684;52.150;11.656;2022-11-10T13:53:18;4.88;;;2.05;;
15167;SDS011;7684;52.150;11.656;2022-11-10T13:55:51;6.55;;;1.70;;
15167;SDS011;7684;52.150;11.656;2022-11-10T13:58:24;10.57;;;1.67;;
15167;SDS011;7684;52.150;11.656;2022-11-10T14:03:52;8.35;;;1.85;;
15167;SDS011;7684;52.150;11.656;2022-11-10T14:06:19;5.40;;;1.65;;
15167;SDS011;7684;52.150;11.656;2022-11-10T14:08:47;10.20;;;2.15;;
15167;SDS011;7684;52.150;11.656;2022-11-10T14:11:20;8.70;;;1.95;;
15167;SDS011;7684;52.150;11.656;2022-11-10T14:13:49;6.13;;;1.58;;
15167;SDS011;7684;52.150;11.656;2022-11-10T14:16:16;3.65;;;1.25;;
15167;SDS011;7684;52.150;11.656;2022-11-10T14:21:26;6.83;;;1.70;;
15167;SDS011;7684;52.150;11.656;2022-11-10T14:23:55;7.43;;;1.63;;
15167;SDS011;7684;52.150;11.656;2022-11-10T14:26:24;6.67;;;1.60;;
15167;SDS011;7684;52.150;11.656;2022-11-10T14:28:52;4.20;;;1.70;;
15167;SDS011;7684;52.150;11.656;2022-11-10T14:31:19;4.93;;;1.80;;
15167;SDS011;7684;52.150;11.656;2022-11-10T14:33:53;5.90;;;1.87;;
15167;SDS011;7684;52.150;11.656;2022-11-10T14:36:19;3.80;;;1.70;;
15167;SDS011;7684;52.150;11.656;2022-11-10T14:38:46;5.37;;;1.97;;
15167;SDS011;7684;52.150;11.656;2022-11-10T14:41:13;6.37;;;1.80;;
15167;SDS011;7684;52.150;11.656;2022-11-10T14:43:42;7.30;;;1.73;;
15167;SDS011;7684;52.150;11.656;2022-11-10T14:46:11;6.00;;;1.53;;
15167;SDS011;7684;52.150;11.656;2022-11-10T14:48:38;3.83;;;1.80;;
15167;SDS011;7684;52.150;11.656;2022-11-10T14:51:06;6.00;;;2.00;;
15167;SDS011;7684;52.150;11.656;2022-11-10T14:53:34;8.47;;;1.80;;
15167;SDS011;7684;52.150;11.656;2022-11-10T14:56:01;9.00;;;1.70;;
15167;SDS011;7684;52.150;11.656;2022-11-10T14:58:30;9.73;;;2.10;;
15167;SDS011;7684;52.150;11.656;2022-11-10T15:00:58;7.47;;;2.00;;
15167;SDS011;7684;52.150;11.656;2022-11-10T15:03:32;6.23;;;1.80;;
15167;SDS011;7684;52.150;11.656;2022-11-10T15:05:59;4.47;;;1.70;;
15167;SDS011;7684;52.150;11.656;2022-11-10T15:08:27;7.07;;;2.07;;
15167;SDS011;7684;52.150;11.656;2022-11-10T15:10:53;3.97;;;1.63;;
15167;SDS011;7684;52.150;11.656;2022-11-10T15:13:31;7.83;;;2.03;;
15167;SDS011;7684;52.150;11.656;2022-11-10T15:18:40;9.40;;;2.00;;
15167;SDS011;7684;52.150;11.656;2022-11-10T15:21:08;6.47;;;1.97;;
15167;SDS011;7684;52.150;11.656;2022-11-10T15:23:36;6.97;;;1.93;;
15167;SDS011;7684;52.150;11.656;2022-11-10T15:26:03;5.60;;;2.17;;
15167;SDS011;7684;52.150;11.656;2022-11-10T15:28:30;6.43;;;2.37;;
15167;SDS011;7684;52.150;11.656;2022-11-10T15:30:57;7.77;;;2.30;;
15167;SDS011;7684;52.150;11.656;2022-11-10T15:33:24;5.93;;;2.00;;
15167;SDS011;7684;52.150;11.656;2022-11-10T15:35:53;6.20;;;1.90;;
15167;SDS011;7684;52.150;11.656;2022-11-10T15:38:24;4.80;;;1.80;;
15167;SDS011;7684;52.150;11.656;2022-11-10T15:40:51;8.10;;;2.40;;
15167;SDS011;7684;52.150;11.656;2022-11-10T15:43:25;8.73;;;2.40;;
15167;SDS011;7684;52.150;11.656;2022-11-10T15:45:53;4.93;;;2.00;;
15167;SDS011;7684;52.150;11.656;2022-11-10T15:48:20;7.73;;;2.10;;
15167;SDS011;7684;52.150;11.656;2022-11-10T15:50:48;5.60;;;1.97;;
15167;SDS011;7684;52.150;11.656;2022-11-10T15:53:16;11.33;;;2.80;;
15167;SDS011;7684;52.150;11.656;2022-11-10T15:55:43;6.60;;;2.67;;
15167;SDS011;7684;52.150;11.656;2022-11-10T15:58:13;8.67;;;2.53;;
15167;SDS011;7684;52.150;11.656;2022-11-10T16:00:40;9.47;;;2.90;;
15167;SDS011;7684;52.150;11.656;2022-11-10T16:03:08;4.87;;;2.20;;
15167;SDS011;7684;52.150;11.656;2022-11-10T16:05:34;5.97;;;2.00;;
15167;SDS011;7684;52.150;11.656;2022-11-10T16:08:04;6.30;;;2.10;;
15167;SDS011;7684;52.150;11.656;2022-11-10T16:10:32;6.20;;;2.57;;
15167;SDS011;7684;52.150;11.656;2022-11-10T16:12:58;6.53;;;2.57;;
15167;SDS011;7684;52.150;11.656;2022-11-10T16:15:24;7.53;;;2.50;;
15167;SDS011;7684;52.150;11.656;2022-11-10T16:17:51;5.20;;;2.50;;
15167;SDS011;7684;52.150;11.656;2022-11-10T16:20:17;7.13;;;2.83;;
15167;SDS011;7684;52.150;11.656;2022-11-10T16:22:43;4.70;;;2.20;;
15167;SDS011;7684;52.150;11.656;2022-11-10T16:25:11;6.07;;;2.63;;
15167;SDS011;7684;52.150;11.656;2022-11-10T16:27:39;6.60;;;3.20;;
15167;SDS011;7684;52.150;11.656;2022-11-10T16:30:08;6.73;;;2.63;;
15167;SDS011;7684;52.150;11.656;2022-11-10T16:32:37;7.70;;;2.70;;
15167;SDS011;7684;52.150;11.656;2022-11-10T16:35:03;8.07;;;2.87;;
15167;SDS011;7684;52.150;11.656;2022-11-10T16:37:32;7.03;;;2.80;;
15167;SDS011;7684;52.150;11.656;2022-11-10T16:39:59;5.03;;;2.53;;
15167;SDS011;7684;52.150;11.656;2022-11-10T16:42:25;9.33;;;2.77;;
15167;SDS011;7684;52.150;11.656;2022-11-10T16:44:52;7.23;;;2.60;;
15167;SDS011;7684;52.150;11.656;2022-11-10T16:47:19;9.20;;;3.20;;
15167;SDS011;7684;52.150;11.656;2022-11-10T16:49:45;8.17;;;3.40;;
15167;SDS011;7684;52.150;11.656;2022-11-10T16:52:13;8.33;;;2.60;;
15167;SDS011;7684;52.150;11.656;2022-11-10T16:54:40;7.27;;;3.07;;
15167;SDS011;7684;52.150;11.656;2022-11-10T16:57:09;6.80;;;3.07;;
15167;SDS011;7684;52.150;11.656;2022-11-10T16:59:37;9.53;;;3.33;;
15167;SDS011;7684;52.150;11.656;2022-11-10T17:02:07;7.33;;;2.83;;
15167;SDS011;7684;52.150;11.656;2022-11-10T17:04:38;11.33;;;3.50;;
15167;SDS011;7684;52.150;11.656;2022-11-10T17:07:07;8.97;;;3.03;;
15167;SDS011;7684;52.150;11.656;2022-11-10T17:09:35;8.50;;;3.30;;
15167;SDS011;7684;52.150;11.656;2022-11-10T17:12:01;7.73;;;3.17;;
15167;SDS011;7684;52.150;11.656;2022-11-10T17:14:27;11.23;;;3.23;;
15167;SDS011;7684;52.150;11.656;2022-11-10T17:16:54;7.17;;;3.10;;
15167;SDS011;7684;52.150;11.656;2022-11-10T17:19:23;6.53;;;2.60;;
15167;SDS011;7684;52.150;11.656;2022-11-10T17:21:50;7.80;;;3.47;;
15167;SDS011;7684;52.150;11.656;2022-11-10T17:24:17;7.83;;;2.90;;
15167;SDS011;7684;52.150;11.656;2022-11-10T17:26:44;9.00;;;3.10;;
15167;SDS011;7684;52.150;11.656;2022-11-10T17:29:13;8.07;;;2.73;;
15167;SDS011;7684;52.150;11.656;2022-11-10T17:31:41;8.30;;;3.00;;
15167;SDS011;7684;52.150;11.656;2022-11-10T17:34:07;7.63;;;3.30;;
15167;SDS011;7684;52.150;11.656;2022-11-10T17:36:35;8.77;;;3.57;;
15167;SDS011;7684;52.150;11.656;2022-11-10T17:39:01;8.00;;;3.30;;
15167;SDS011;7684;52.150;11.656;2022-11-10T17:41:27;8.53;;;3.07;;
15167;SDS011;7684;52.150;11.656;2022-11-10T17:43:53;6.27;;;3.30;;
15167;SDS011;7684;52.150;11.656;2022-11-10T17:46:20;8.40;;;3.07;;
15167;SDS011;7684;52.150;11.656;2022-11-10T17:48:47;9.57;;;3.20;;
15167;SDS011;7684;52.150;11.656;2022-11-10T17:51:15;7.27;;;3.30;;
15167;SDS011;7684;52.150;11.656;2022-11-10T17:53:43;9.07;;;3.27;;
15167;SDS011;7684;52.150;11.656;2022-11-10T17:56:09;8.33;;;3.07;;
15167;SDS011;7684;52.150;11.656;2022-11-10T17:58:35;7.97;;;3.20;;
15167;SDS011;7684;52.150;11.656;2022-11-10T18:01:05;7.70;;;3.27;;
15167;SDS011;7684;52.150;11.656;2022-11-10T18:03:32;7.83;;;3.33;;
15167;SDS011;7684;52.150;11.656;2022-11-10T18:05:58;5.90;;;3.37;;
15167;SDS011;7684;52.150;11.656;2022-11-10T18:08:24;8.27;;;3.73;;
15167;SDS011;7684;52.150;11.656;2022-11-10T18:10:52;11.27;;;3.87;;
15167;SDS011;7684;52.150;11.656;2022-11-10T18:13:18;10.77;;;3.90;;
15167;SDS011;7684;52.150;11.656;2022-11-10T18:15:45;11.30;;;4.17;;
15167;SDS011;7684;52.150;11.656;2022-11-10T18:18:12;9.20;;;3.80;;
15167;SDS011;7684;52.150;11.656;2022-11-10T18:20:38;8.83;;;3.73;;
15167;SDS011;7684;52.150;11.656;2022-11-10T18:23:05;10.47;;;3.63;;
15167;SDS011;7684;52.150;11.656;2022-11-10T18:25:35;8.47;;;4.00;;
15167;SDS011;7684;52.150;11.656;2022-11-10T18:28:03;8.43;;;3.50;;
15167;SDS011;7684;52.150;11.656;2022-11-10T18:30:30;7.83;;;4.27;;
15167;SDS011;7684;52.150;11.656;2022-11-10T18:32:56;6.03;;;3.60;;
15167;SDS011;7684;52.150;11.656;2022-11-10T18:35:23;8.30;;;3.50;;
15167;SDS011;7684;52.150;11.656;2022-11-10T18:37:49;10.47;;;4.10;;
15167;SDS011;7684;52.150;11.656;2022-11-10T18:40:16;6.17;;;3.67;;
15167;SDS011;7684;52.150;11.656;2022-11-10T18:42:42;6.87;;;3.73;;
15167;SDS011;7684;52.150;11.656;2022-11-10T18:45:10;12.33;;;4.50;;
15167;SDS011;7684;52.150;11.656;2022-11-10T18:47:37;7.77;;;3.60;;
15167;SDS011;7684;52.150;11.656;2022-11-10T18:50:04;9.67;;;3.60;;
15167;SDS011;7684;52.150;11.656;2022-11-10T18:52:30;9.47;;;4.00;;
15167;SDS011;7684;52.150;11.656;2022-11-10T18:54:57;8.23;;;3.50;;
15167;SDS011;7684;52.150;11.656;2022-11-10T18:57:25;6.77;;;3.83;;
15167;SDS011;7684;52.150;11.656;2022-11-10T18:59:52;7.27;;;3.30;;
15167;SDS011;7684;52.150;11.656;2022-11-10T19:02:20;6.03;;;3.30;;
15167;SDS011;7684;52.150;11.656;2022-11-10T19:04:47;8.00;;;4.37;;
15167;SDS011;7684;52.150;11.656;2022-11-10T19:07:13;7.00;;;3.87;;
15167;SDS011;7684;52.150;11.656;2022-11-10T19:09:40;10.90;;;3.97;;
15167;SDS011;7684;52.150;11.656;2022-11-10T19:12:06;9.33;;;3.43;;
15167;SDS011;7684;52.150;11.656;2022-11-10T19:14:32;6.80;;;3.83;;
15167;SDS011;7684;52.150;11.656;2022-11-10T19:16:59;7.60;;;3.87;;
15167;SDS011;7684;52.150;11.656;2022-11-10T19:19:26;7.80;;;3.73;;
15167;SDS011;7684;52.150;11.656;2022-11-10T19:21:53;10.73;;;4.40;;
15167;SDS011;7684;52.150;11.656;2022-11-10T19:24:19;5.00;;;3.60;;
15167;SDS011;7684;52.150;11.656;2022-11-10T19:26:47;9.30;;;3.40;;
15167;SDS011;7684;52.150;11.656;2022-11-10T19:29:14;8.43;;;3.80;;
15167;SDS011;7684;52.150;11.656;2022-11-10T19:31:41;11.97;;;3.93;;
15167;SDS011;7684;52.150;11.656;2022-11-10T19:34:07;10.97;;;4.17;;
15167;SDS011;7684;52.150;11.656;2022-11-10T19:36:35;6.63;;;4.00;;
15167;SDS011;7684;52.150;11.656;2022-11-10T19:39:01;10.53;;;4.73;;
15167;SDS011;7684;52.150;11.656;2022-11-10T19:41:29;10.53;;;4.67;;
15167;SDS011;7684;52.150;11.656;2022-11-10T19:43:57;9.37;;;4.60;;
15167;SDS011;7684;52.150;11.656;2022-11-10T19:46:24;8.83;;;4.17;;
15167;SDS011;7684;52.150;11.656;2022-11-10T19:48:51;9.93;;;4.33;;
15167;SDS011;7684;52.150;11.656;2022-11-10T19:51:19;9.57;;;4.10;;
15167;SDS011;7684;52.150;11.656;2022-11-10T19:53:48;10.73;;;4.10;;
15167;SDS011;7684;52.150;11.656;2022-11-10T19:56:20;12.87;;;4.30;;
15167;SDS011;7684;52.150;11.656;2022-11-10T19:58:47;8.03;;;4.13;;
15167;SDS011;7684;52.150;11.656;2022-11-10T20:01:15;10.77;;;3.90;;
15167;SDS011;7684;52.150;11.656;2022-11-10T20:03:42;7.30;;;4.03;;
15167;SDS011;7684;52.150;11.656;2022-11-10T20:06:09;7.60;;;3.83;;
15167;SDS011;7684;52.150;11.656;2022-11-10T20:08:36;8.30;;;4.07;;
15167;SDS011;7684;52.150;11.656;2022-11-10T20:11:05;7.10;;;3.90;;
15167;SDS011;7684;52.150;11.656;2022-11-10T20:13:33;8.10;;;4.00;;
15167;SDS011;7684;52.150;11.656;2022-11-10T20:16:01;10.27;;;4.27;;
15167;SDS011;7684;52.150;11.656;2022-11-10T20:18:28;12.73;;;4.30;;
15167;SDS011;7684;52.150;11.656;2022-11-10T20:21:00;7.77;;;3.97;;
15167;SDS011;7684;52.150;11.656;2022-11-10T20:23:26;5.80;;;4.13;;
15167;SDS011;7684;52.150;11.656;2022-11-10T20:25:59;10.27;;;4.57;;